createdAt,value
2022-11-06T00:02:20.497Z,101474.56
2022-11-06T00:04:48.510Z,101476.00
2022-11-06T00:07:15.099Z,101467.41
2022-11-06T00:09:41.581Z,101474.72
2022-11-06T00:12:07.990Z,101466.94
2022-11-06T00:14:35.124Z,101474.25
2022-11-06T00:17:01.544Z,101479.69
2022-11-06T00:19:28.009Z,101472.00
2022-11-06T00:21:54.421Z,101474.44
2022-11-06T00:24:20.876Z,101472.97
2022-11-06T00:26:53.047Z,101473.78
2022-11-06T00:29:20.867Z,101473.13
2022-11-06T00:31:49.747Z,101469.78
2022-11-06T00:34:16.220Z,101465.16
2022-11-06T00:36:42.619Z,101472.50
2022-11-06T00:39:09.832Z,101473.28
2022-11-06T00:41:36.224Z,101475.66
2022-11-06T00:44:03.035Z,101473.44
2022-11-06T00:46:29.908Z,101471.50
2022-11-06T00:48:56.711Z,101470.38
2022-11-06T00:51:41.445Z,101465.44
2022-11-06T00:54:10.829Z,101448.38
2022-11-06T00:56:37.489Z,101460.81
2022-11-06T00:59:07.642Z,101452.69
2022-11-06T01:01:37.184Z,101449.97
2022-11-06T01:04:09.766Z,101454.31
2022-11-06T01:06:39.359Z,101450.81
2022-11-06T01:09:07.707Z,101441.84
2022-11-06T01:12:11.289Z,101435.97
2022-11-06T01:14:27.212Z,101432.47
2022-11-06T01:16:53.962Z,101427.84
2022-11-06T01:19:21.883Z,101422.44
2022-11-06T01:21:52.714Z,101432.13
2022-11-06T01:24:22.526Z,101422.88
2022-11-06T01:27:19.807Z,101431.84
2022-11-06T01:29:36.545Z,101438.69
2022-11-06T01:32:03.415Z,101438.34
2022-11-06T01:34:29.997Z,101434.22
2022-11-06T01:36:56.446Z,101443.47
2022-11-06T01:39:22.889Z,101435.00
2022-11-06T01:41:51.458Z,101436.59
2022-11-06T01:44:33.119Z,101437.06
2022-11-06T01:47:01.545Z,101436.94
2022-11-06T01:49:31.122Z,101430.72
2022-11-06T01:52:01.273Z,101422.88
2022-11-06T01:54:30.517Z,101421.31
2022-11-06T01:57:00.058Z,101414.28
2022-11-06T01:59:29.867Z,101412.38
2022-11-06T02:01:56.668Z,101415.75
2022-11-06T02:04:33.699Z,101414.16
2022-11-06T02:07:01.126Z,101417.34
2022-11-06T02:09:30.480Z,101410.34
2022-11-06T02:12:07.987Z,101410.00
2022-11-06T02:15:18.143Z,101408.88
2022-11-06T02:18:21.639Z,101392.63
2022-11-06T02:21:19.551Z,101393.75
2022-11-06T02:23:55.152Z,101399.63
2022-11-06T02:26:46.718Z,101393.41
2022-11-06T02:29:21.266Z,101384.16
2022-11-06T02:31:51.537Z,101385.28
2022-11-06T02:34:22.478Z,101382.59
2022-11-06T02:36:58.977Z,101377.66
2022-11-06T02:39:29.114Z,101384.66
2022-11-06T02:41:59.229Z,101390.06
2022-11-06T02:44:29.221Z,101373.81
2022-11-06T02:47:00.851Z,101374.28
2022-11-06T02:49:42.044Z,101371.91
2022-11-06T02:52:17.105Z,101370.78
2022-11-06T02:54:50.141Z,101368.88
2022-11-06T02:57:19.891Z,101367.75
2022-11-06T03:00:02.805Z,101377.78
2022-11-06T03:02:35.519Z,101375.88
2022-11-06T03:05:21.547Z,101366.16
2022-11-06T03:08:00.485Z,101369.34
2022-11-06T03:10:55.515Z,101367.09
2022-11-06T03:13:28.205Z,101360.53
2022-11-06T03:16:06.745Z,101357.84
2022-11-06T03:18:51.437Z,101358.31
2022-11-06T03:21:38.440Z,101370.75
2022-11-06T03:24:14.899Z,101362.28
2022-11-06T03:26:52.613Z,101367.69
2022-11-06T03:29:21.690Z,101373.91
2022-11-06T03:32:01.557Z,101370.41
2022-11-06T03:34:41.930Z,101367.84
2022-11-06T03:37:19.617Z,101361.31
2022-11-06T03:39:53.867Z,101355.91
2022-11-06T03:42:27.514Z,101342.03
2022-11-06T03:45:03.133Z,101349.34
2022-11-06T03:47:35.171Z,101345.53
2022-11-06T03:50:33.670Z,101331.19
2022-11-06T03:53:13.365Z,101333.22
2022-11-06T03:55:47.407Z,101324.63
2022-11-06T03:58:27.186Z,101322.72
2022-11-06T04:00:55.835Z,101322.84
2022-11-06T04:03:28.700Z,101310.09
2022-11-06T04:06:06.541Z,101317.88
2022-11-06T04:08:52.624Z,101321.09
2022-11-06T04:11:42.192Z,101304.03
2022-11-06T04:14:09.457Z,101305.28
2022-11-06T04:16:43.018Z,101296.03
2022-11-06T04:19:15.963Z,101297.03
2022-11-06T04:22:01.076Z,101297.16
2022-11-06T04:25:06.447Z,101303.69
2022-11-06T04:28:00.136Z,101303.34
2022-11-06T04:30:31.003Z,101307.66
2022-11-06T04:33:12.395Z,101299.06
2022-11-06T04:36:08.141Z,101293.31
2022-11-06T04:39:18.280Z,101292.53
2022-11-06T04:42:08.539Z,101291.06
2022-11-06T04:44:39.975Z,101294.09
2022-11-06T04:47:09.654Z,101285.63
2022-11-06T04:49:40.077Z,101288.50
2022-11-06T04:52:09.869Z,101280.03
2022-11-06T04:54:36.448Z,101267.94
2022-11-06T04:57:03.911Z,101280.81
2022-11-06T04:59:34.273Z,101278.13
2022-11-06T05:02:00.948Z,101268.06
2022-11-06T05:04:27.447Z,101277.00
2022-11-06T05:06:53.915Z,101265.34
2022-11-06T05:09:20.397Z,101270.44
2022-11-06T05:11:47.024Z,101272.34
2022-11-06T05:14:13.468Z,101272.81
2022-11-06T05:16:40.018Z,101268.84
2022-11-06T05:19:06.662Z,101265.81
2022-11-06T05:21:51.665Z,101270.88
2022-11-06T05:24:18.132Z,101270.88
2022-11-06T05:26:44.650Z,101266.25
2022-11-06T05:29:12.760Z,101258.13
2022-11-06T05:31:39.708Z,101254.63
2022-11-06T05:34:07.128Z,101255.75
2022-11-06T05:36:33.729Z,101252.59
2022-11-06T05:39:00.166Z,101247.97
2022-11-06T05:41:26.635Z,101250.22
2022-11-06T05:43:53.177Z,101248.31
2022-11-06T05:46:42.883Z,101240.16
2022-11-06T05:49:06.076Z,101240.97
2022-11-06T05:51:32.547Z,101240.16
2022-11-06T05:53:59.005Z,101241.28
2022-11-06T05:56:25.466Z,101237.44
2022-11-06T05:58:51.968Z,101243.66
2022-11-06T06:01:18.606Z,101244.13
2022-11-06T06:03:45.149Z,101237.91
2022-11-06T06:06:11.569Z,101225.94
2022-11-06T06:08:38.005Z,101224.03
2022-11-06T06:11:08.181Z,101218.94
2022-11-06T06:13:37.773Z,101224.03
2022-11-06T06:16:04.929Z,101218.94
2022-11-06T06:18:31.600Z,101209.22
2022-11-06T06:20:59.147Z,101211.94
2022-11-06T06:23:25.742Z,101205.38
2022-11-06T06:25:52.218Z,101200.31
2022-11-06T06:28:18.677Z,101197.94
2022-11-06T06:30:45.104Z,101197.59
2022-11-06T06:33:11.544Z,101199.16
2022-11-06T06:35:37.951Z,101198.84
2022-11-06T06:38:04.558Z,101191.50
2022-11-06T06:40:31.101Z,101190.38
2022-11-06T06:42:58.518Z,101193.41
2022-11-06T06:45:26.120Z,101197.69
2022-11-06T06:47:52.999Z,101203.28
2022-11-06T06:50:19.471Z,101204.84
2022-11-06T06:52:45.935Z,101209.47
2022-11-06T06:55:12.408Z,101211.53
2022-11-06T06:57:38.817Z,101203.88
2022-11-06T07:00:05.789Z,101205.59
2022-11-06T07:02:32.302Z,101196.34
2022-11-06T07:04:58.767Z,101192.50
2022-11-06T07:07:25.201Z,101178.28
2022-11-06T07:09:52.299Z,101190.63
2022-11-06T07:12:18.791Z,101188.81
2022-11-06T07:14:45.221Z,101183.97
2022-11-06T07:17:11.781Z,101183.97
2022-11-06T07:19:38.296Z,101183.50
2022-11-06T07:22:04.681Z,101187.03
2022-11-06T07:24:31.104Z,101182.72
2022-11-06T07:26:57.562Z,101182.72
2022-11-06T07:29:24.003Z,101190.41
2022-11-06T07:31:50.395Z,101179.53
2022-11-06T07:34:16.820Z,101177.63
2022-11-06T07:36:43.273Z,101173.66
2022-11-06T07:39:09.692Z,101170.63
2022-11-06T07:41:36.197Z,101167.13
2022-11-06T07:44:02.678Z,101171.75
2022-11-06T07:46:29.136Z,101178.75
2022-11-06T07:48:55.551Z,101179.53
2022-11-06T07:51:22.094Z,101181.91
2022-11-06T07:53:48.489Z,101174.56
2022-11-06T07:56:14.930Z,101182.72
2022-11-06T07:58:41.383Z,101173.00
2022-11-06T08:01:18.187Z,101175.94
2022-11-06T08:03:45.253Z,101176.88
2022-11-06T08:06:12.066Z,101171.91
2022-11-06T08:08:38.517Z,101163.06
2022-11-06T08:11:07.056Z,101162.72
2022-11-06T08:13:36.407Z,101162.97
2022-11-06T08:16:08.637Z,101169.63
2022-11-06T08:18:35.467Z,101164.22
2022-11-06T08:21:02.739Z,101166.94
2022-11-06T08:23:29.253Z,101157.69
2022-11-06T08:25:57.252Z,101149.66
2022-11-06T08:28:25.147Z,101140.47
2022-11-06T08:30:52.041Z,101151.81
2022-11-06T08:33:19.556Z,101141.75
2022-11-06T08:35:46.215Z,101137.19
2022-11-06T08:38:13.073Z,101123.28
2022-11-06T08:40:40.264Z,101120.25
2022-11-06T08:43:09.433Z,101115.28
2022-11-06T08:45:40.846Z,101117.63
2022-11-06T08:48:08.237Z,101112.78
2022-11-06T08:50:36.947Z,101102.47
2022-11-06T08:53:04.447Z,101103.47
2022-11-06T08:55:31.323Z,101102.78
2022-11-06T08:57:57.842Z,101104.81
2022-11-06T09:00:24.818Z,101096.34
2022-11-06T09:02:51.374Z,101088.06
2022-11-06T09:05:17.816Z,101088.63
2022-11-06T09:07:44.260Z,101093.31
2022-11-06T09:10:10.677Z,101090.22
2022-11-06T09:12:37.197Z,101076.00
2022-11-06T09:15:03.934Z,101090.13
2022-11-06T09:17:30.394Z,101069.34
2022-11-06T09:19:56.841Z,101076.03
2022-11-06T09:22:23.271Z,101076.81
2022-11-06T09:25:03.250Z,101068.56
2022-11-06T09:27:31.108Z,101071.63
2022-11-06T09:29:57.711Z,101067.31
2022-11-06T09:32:24.760Z,101058.47
2022-11-06T09:34:51.629Z,101055.06
2022-11-06T09:37:18.127Z,101055.50
2022-11-06T09:39:44.681Z,101058.22
2022-11-06T09:43:03.439Z,101055.56
2022-11-06T09:45:32.502Z,101059.13
2022-11-06T09:48:10.859Z,101061.84
2022-11-06T09:50:44.736Z,101055.56
2022-11-06T09:53:19.934Z,101060.69
2022-11-06T09:55:48.835Z,101061.91
2022-11-06T09:58:20.401Z,101062.28
2022-11-06T10:00:48.399Z,101056.84
2022-11-06T10:03:21.949Z,101063.41
2022-11-06T10:05:48.433Z,101053.69
2022-11-06T10:08:25.288Z,101061.84
2022-11-06T10:11:03.037Z,101059.53
2022-11-06T10:13:37.649Z,101057.25
2022-11-06T10:16:28.981Z,101050.13
2022-11-06T10:19:16.134Z,101043.47
2022-11-06T10:21:48.797Z,101044.09
2022-11-06T10:24:22.673Z,101034.97
2022-11-06T10:26:53.424Z,101033.22
2022-11-06T10:29:34.877Z,101020.53
2022-11-06T10:32:21.045Z,101028.16
2022-11-06T10:34:52.553Z,101032.25
2022-11-06T10:37:25.998Z,101023.22
2022-11-06T10:39:53.860Z,101019.28
2022-11-06T10:42:24.147Z,101019.59
2022-11-06T10:44:50.540Z,101014.97
2022-11-06T10:47:22.554Z,101007.94
2022-11-06T10:49:55.934Z,101004.78
2022-11-06T10:52:30.299Z,101000.50
2022-11-06T10:55:15.614Z,100998.56
2022-11-06T10:57:48.047Z,100992.44
2022-11-06T11:00:16.066Z,100980.97
2022-11-06T11:02:49.542Z,100978.81
2022-11-06T11:05:18.962Z,100974.94
2022-11-06T11:07:47.461Z,100971.50
2022-11-06T11:10:34.890Z,100959.19
2022-11-06T11:13:08.089Z,100959.59
2022-11-06T11:15:46.580Z,100960.50
2022-11-06T11:18:13.374Z,100958.69
2022-11-06T11:20:42.305Z,100958.31
2022-11-06T11:23:25.856Z,100948.25
2022-11-06T11:25:57.611Z,100939.03
2022-11-06T11:28:23.986Z,100946.91
2022-11-06T11:31:11.899Z,100943.78
2022-11-06T11:33:40.717Z,100940.69
2022-11-06T11:36:08.833Z,100935.25
2022-11-06T11:38:38.385Z,100935.63
2022-11-06T11:41:28.272Z,100937.19
2022-11-06T11:44:05.367Z,100928.59
2022-11-06T11:46:33.047Z,100934.84
2022-11-06T11:48:59.786Z,100913.88
2022-11-06T11:51:37.919Z,100912.66
2022-11-06T11:54:16.543Z,100914.22
2022-11-06T11:57:06.291Z,100907.53
2022-11-06T11:59:38.392Z,100897.47
2022-11-06T12:02:26.599Z,100883.19
2022-11-06T12:04:58.489Z,100890.19
2022-11-06T12:07:32.606Z,100892.13
2022-11-06T12:10:01.231Z,100879.75
2022-11-06T12:12:33.206Z,100882.09
2022-11-06T12:15:16.447Z,100875.53
2022-11-06T12:17:44.168Z,100872.47
2022-11-06T12:20:22.752Z,100859.66
2022-11-06T12:22:52.634Z,100865.91
2022-11-06T12:25:30.787Z,100853.88
2022-11-06T12:28:02.554Z,100851.16
2022-11-06T12:30:32.920Z,100841.06
2022-11-06T12:33:02.134Z,100838.78
2022-11-06T12:35:45.602Z,100829.84
2022-11-06T12:38:40.751Z,100829.41
2022-11-06T12:41:16.406Z,100827.84
2022-11-06T12:43:46.402Z,100825.03
2022-11-06T12:46:50.448Z,100824.22
2022-11-06T12:49:16.852Z,100823.81
2022-11-06T12:51:49.167Z,100828.03
2022-11-06T12:54:25.813Z,100823.28
2022-11-06T12:56:58.122Z,100819.41
2022-11-06T12:59:50.565Z,100820.56
2022-11-06T13:02:54.579Z,100819.41
2022-11-06T13:05:44.097Z,100824.44
2022-11-06T13:08:17.020Z,100825.94
2022-11-06T13:11:22.576Z,100828.59
2022-11-06T13:14:08.928Z,100824.19
2022-11-06T13:16:56.461Z,100816.72
2022-11-06T13:19:25.946Z,100811.72
2022-11-06T13:21:52.379Z,100817.16
2022-11-06T13:24:22.673Z,100812.06
2022-11-06T13:27:14.726Z,100817.78
2022-11-06T13:29:43.628Z,100818.38
2022-11-06T13:32:20.227Z,100819.44
2022-11-06T13:34:50.608Z,100808.41
2022-11-06T13:37:21.519Z,100814.13
2022-11-06T13:40:16.079Z,100803.09
2022-11-06T13:42:49.837Z,100804.84
2022-11-06T13:45:17.399Z,100800.38
2022-11-06T13:47:49.796Z,100796.31
2022-11-06T13:50:31.633Z,100796.97
2022-11-06T13:53:05.573Z,100798.00
2022-11-06T13:55:53.501Z,100805.16
2022-11-06T13:58:57.374Z,100796.81
2022-11-06T14:01:41.595Z,100796.19
2022-11-06T14:04:20.148Z,100797.16
2022-11-06T14:06:48.013Z,100784.44
2022-11-06T14:09:20.905Z,100791.69
2022-11-06T14:11:54.935Z,100796.56
2022-11-06T14:14:21.311Z,100790.16
2022-11-06T14:17:12.099Z,100791.88
2022-11-06T14:19:39.874Z,100792.59
2022-11-06T14:22:09.323Z,100791.22
2022-11-06T14:24:37.621Z,100788.78
2022-11-06T14:27:10.369Z,100786.28
2022-11-06T14:29:36.720Z,100795.44
2022-11-06T14:32:34.565Z,100780.91
2022-11-06T14:35:28.804Z,100779.09
2022-11-06T14:38:10.768Z,100775.13
2022-11-06T14:40:39.320Z,100768.84
2022-11-06T14:43:25.192Z,100765.34
2022-11-06T14:46:00.023Z,100769.66
2022-11-06T14:48:35.400Z,100763.75
2022-11-06T14:51:05.733Z,100757.13
2022-11-06T14:53:44.966Z,100751.59
2022-11-06T14:56:19.948Z,100749.13
2022-11-06T14:58:54.878Z,100748.25
2022-11-06T15:01:31.321Z,100748.81
2022-11-06T15:04:18.637Z,100737.88
2022-11-06T15:06:48.390Z,100723.75
2022-11-06T15:09:23.594Z,100727.59
2022-11-06T15:11:57.580Z,100730.97
2022-11-06T15:14:24.253Z,100729.28
2022-11-06T15:17:09.493Z,100715.97
2022-11-06T15:20:01.480Z,100722.78
2022-11-06T15:22:35.858Z,100720.38
2022-11-06T15:25:24.210Z,100718.69
2022-11-06T15:27:56.953Z,100714.06
2022-11-06T15:30:24.663Z,100705.06
2022-11-06T15:32:54.226Z,100704.59
2022-11-06T15:35:27.532Z,100686.34
2022-11-06T15:38:04.960Z,100697.84
2022-11-06T15:40:36.594Z,100687.69
2022-11-06T15:43:33.259Z,100686.78
2022-11-06T15:46:12.004Z,100670.00
2022-11-06T15:48:38.724Z,100670.22
2022-11-06T15:51:21.259Z,100672.00
2022-11-06T15:53:47.669Z,100660.97
2022-11-06T15:56:16.369Z,100655.09
2022-11-06T15:58:43.314Z,100663.13
2022-11-06T16:01:11.502Z,100650.59
2022-11-06T16:03:49.212Z,100648.66
2022-11-06T16:06:16.010Z,100638.19
2022-11-06T16:08:43.322Z,100631.91
2022-11-06T16:11:19.032Z,100627.63
2022-11-06T16:13:49.098Z,100626.91
2022-11-06T16:16:34.406Z,100621.06
2022-11-06T16:19:03.226Z,100607.78
2022-11-06T16:21:35.645Z,100603.03
2022-11-06T16:24:11.128Z,100594.81
2022-11-06T16:26:44.190Z,100598.97
2022-11-06T16:29:19.008Z,100587.03
2022-11-06T16:31:48.207Z,100581.97
2022-11-06T16:34:32.921Z,100574.06
2022-11-06T16:37:30.010Z,100572.47
2022-11-06T16:39:59.994Z,100572.34
2022-11-06T16:42:30.844Z,100572.81
2022-11-06T16:45:01.524Z,100583.81
2022-11-06T16:47:28.552Z,100570.66
2022-11-06T16:49:57.016Z,100565.25
2022-11-06T16:52:31.952Z,100569.09
2022-11-06T16:55:00.268Z,100579.09
2022-11-06T16:57:49.052Z,100572.91
2022-11-06T17:00:21.575Z,100574.81
2022-11-06T17:02:59.374Z,100574.69
2022-11-06T17:05:29.102Z,100583.91
2022-11-06T17:08:20.296Z,100588.09
2022-11-06T17:10:48.543Z,100598.91
2022-11-06T17:13:22.116Z,100599.09
2022-11-06T17:16:01.906Z,100596.72
2022-11-06T17:18:34.058Z,100576.25
2022-11-06T17:21:03.288Z,100561.50
2022-11-06T17:23:31.013Z,100575.47
2022-11-06T17:26:30.598Z,100561.84
2022-11-06T17:28:58.995Z,100561.03
2022-11-06T17:31:26.693Z,100568.03
2022-11-06T17:33:53.574Z,100572.97
2022-11-06T17:36:25.536Z,100573.75
2022-11-06T17:38:53.352Z,100567.56
2022-11-06T17:41:35.023Z,100577.22
2022-11-06T17:44:12.761Z,100579.16
2022-11-06T17:46:43.428Z,100580.75
2022-11-06T17:49:15.759Z,100574.53
2022-11-06T17:51:50.524Z,100571.84
2022-11-06T17:54:18.870Z,100578.06
2022-11-06T17:56:45.946Z,100574.22
2022-11-06T17:59:13.682Z,100568.16
2022-11-06T18:01:41.041Z,100567.03
2022-11-06T18:04:07.736Z,100572.41
2022-11-06T18:06:34.316Z,100571.75
2022-11-06T18:09:03.850Z,100560.94
2022-11-06T18:11:30.850Z,100565.09
2022-11-06T18:13:57.660Z,100561.28
2022-11-06T18:16:30.443Z,100561.28
2022-11-06T18:18:57.264Z,100569.84
2022-11-06T18:21:24.548Z,100558.72
2022-11-06T18:23:51.291Z,100566.47
2022-11-06T18:26:18.527Z,100556.91
2022-11-06T18:28:44.977Z,100546.09
2022-11-06T18:31:11.397Z,100543.53
2022-11-06T18:33:37.891Z,100554.78
2022-11-06T18:36:06.939Z,100548.25
2022-11-06T18:38:34.056Z,100545.66
2022-11-06T18:41:10.226Z,100562.34
2022-11-06T18:43:37.091Z,100551.19
2022-11-06T18:46:08.959Z,100552.47
2022-11-06T18:48:35.982Z,100558.31
2022-11-06T18:51:07.785Z,100555.25
2022-11-06T18:53:34.332Z,100561.47
2022-11-06T18:56:00.903Z,100556.88
2022-11-06T18:58:27.682Z,100576.09
2022-11-06T19:00:58.965Z,100558.44
2022-11-06T19:03:28.082Z,100559.56
2022-11-06T19:05:54.621Z,100550.34
2022-11-06T19:08:21.065Z,100550.34
2022-11-06T19:10:47.516Z,100551.91
2022-11-06T19:13:13.942Z,100554.28
2022-11-06T19:15:40.401Z,100562.72
2022-11-06T19:18:06.852Z,100554.28
2022-11-06T19:20:33.294Z,100569.69
2022-11-06T19:22:59.774Z,100565.19
2022-11-06T19:25:26.477Z,100571.72
2022-11-06T19:27:55.651Z,100561.34
2022-11-06T19:30:22.230Z,100570.94
2022-11-06T19:32:48.724Z,100560.81
2022-11-06T19:35:15.897Z,100568.91
2022-11-06T19:37:42.457Z,100563.50
2022-11-06T19:40:09.224Z,100562.72
2022-11-06T19:42:35.716Z,100564.72
2022-11-06T19:45:02.188Z,100555.50
2022-11-06T19:47:28.712Z,100555.94
2022-11-06T19:49:55.117Z,100557.53
2022-11-06T19:52:41.281Z,100563.41
2022-11-06T19:55:26.073Z,100563.84
2022-11-06T19:57:54.742Z,100569.69
2022-11-06T20:00:21.205Z,100563.63
2022-11-06T20:02:50.896Z,100572.97
2022-11-06T20:05:17.962Z,100570.72
2022-11-06T20:07:44.405Z,100572.41
2022-11-06T20:10:11.114Z,100570.16
2022-11-06T20:12:37.593Z,100578.72
2022-11-06T20:15:04.612Z,100571.03
2022-11-06T20:17:31.107Z,100582.88
2022-11-06T20:19:57.505Z,100565.66
2022-11-06T20:22:25.097Z,100571.72
2022-11-06T20:24:51.531Z,100559.88
2022-11-06T20:27:18.144Z,100562.69
2022-11-06T20:29:45.346Z,100564.47
2022-11-06T20:32:17.652Z,100575.50
2022-11-06T20:34:45.480Z,100571.09
2022-11-06T20:37:12.056Z,100568.72
2022-11-06T20:39:38.559Z,100576.94
2022-11-06T20:42:05.040Z,100581.69
2022-11-06T20:44:31.656Z,100578.28
2022-11-06T20:46:58.156Z,100583.81
2022-11-06T20:49:24.836Z,100571.84
2022-11-06T20:52:12.815Z,100574.66
2022-11-06T20:54:40.086Z,100581.75
2022-11-06T20:57:08.926Z,100593.03
2022-11-06T20:59:35.401Z,100587.34
2022-11-06T21:02:01.962Z,100584.41
2022-11-06T21:04:28.543Z,100591.06
2022-11-06T21:06:55.815Z,100589.69
2022-11-06T21:09:23.791Z,100588.75
2022-11-06T21:11:50.357Z,100596.28
2022-11-06T21:14:16.939Z,100593.59
2022-11-06T21:16:43.429Z,100603.72
2022-11-06T21:19:09.896Z,100610.81
2022-11-06T21:21:39.244Z,100615.41
2022-11-06T21:24:06.472Z,100610.81
2022-11-06T21:26:36.253Z,100616.56
2022-11-06T21:29:06.596Z,100611.50
2022-11-06T21:31:33.357Z,100616.47
2022-11-06T21:34:01.527Z,100618.47
2022-11-06T21:36:33.586Z,100623.22
2022-11-06T21:39:03.883Z,100607.41
2022-11-06T21:41:34.074Z,100621.41
2022-11-06T21:44:02.178Z,100625.69
2022-11-06T21:46:28.928Z,100618.69
2022-11-06T21:48:56.202Z,100629.28
2022-11-06T21:51:29.088Z,100640.22
2022-11-06T21:54:14.775Z,100630.28
2022-11-06T21:56:43.106Z,100636.47
2022-11-06T21:59:12.887Z,100640.06
2022-11-06T22:01:40.577Z,100643.19
2022-11-06T22:04:07.621Z,100638.13
2022-11-06T22:06:34.141Z,100641.28
2022-11-06T22:09:02.258Z,100642.06
2022-11-06T22:11:33.746Z,100647.84
2022-11-06T22:14:03.833Z,100655.28
2022-11-06T22:16:33.084Z,100650.31
2022-11-06T22:19:00.036Z,100642.53
2022-11-06T22:21:28.855Z,100653.69
2022-11-06T22:23:56.102Z,100652.91
2022-11-06T22:26:33.845Z,100648.63
2022-11-06T22:29:03.591Z,100649.41
2022-11-06T22:31:30.348Z,100655.19
2022-11-06T22:33:57.459Z,100652.47
2022-11-06T22:36:24.488Z,100658.00
2022-11-06T22:38:51.665Z,100667.34
2022-11-06T22:41:21.431Z,100677.84
2022-11-06T22:43:48.122Z,100679.41
2022-11-06T22:46:21.247Z,100662.84
2022-11-06T22:48:48.245Z,100692.75
2022-11-06T22:51:17.775Z,100677.28
2022-11-06T22:53:44.563Z,100683.84
2022-11-06T22:56:14.621Z,100681.56
2022-11-06T22:58:41.828Z,100685.94
2022-11-06T23:01:10.167Z,100694.28
2022-11-06T23:03:37.026Z,100688.97
2022-11-06T23:06:06.457Z,100687.47
2022-11-06T23:08:34.375Z,100682.13
2022-11-06T23:11:10.353Z,100689.13
2022-11-06T23:13:37.671Z,100695.34
2022-11-06T23:16:07.607Z,100695.34
2022-11-06T23:18:34.033Z,100700.75
2022-11-06T23:21:00.456Z,100703.38
2022-11-06T23:23:27.384Z,100704.97
2022-11-06T23:25:54.104Z,100701.09
2022-11-06T23:28:20.557Z,100696.81
2022-11-06T23:30:47.051Z,100708.88
2022-11-06T23:33:13.850Z,100710.13
2022-11-06T23:35:40.571Z,100704.78
2022-11-06T23:38:07.034Z,100701.84
2022-11-06T23:40:33.489Z,100699.22
2022-11-06T23:42:59.918Z,100709.34
2022-11-06T23:45:44.594Z,100711.28
2022-11-06T23:48:13.215Z,100702.34
2022-11-06T23:50:40.056Z,100714.00
2022-11-06T23:53:06.582Z,100713.66
2022-11-06T23:55:33.237Z,100703.94
2022-11-06T23:57:59.665Z,100714.34
